Time;durP1;ratioP1;P1;durP2;ratioP2;P2;SDS_P1;SDS_P2;PMS_P1;PMS_P2;Temp;Humidity;BMP_temperature;BMP_pressure;BME280_temperature;BME280_humidity;BME280_pressure;Samples;Min_cycle;Max_cycle;Signal;HPM_P1;HPM_P2
2021/07/31 00:00:13;;;;;;;2.00;2.00;;;;;;;18.00;77.14;99677.81;5959393;30;20532;-75
2021/07/31 00:03:18;;;;;;;1.98;1.98;;;;;;;17.92;77.45;99670.97;5959407;30;20528;-75
2021/07/31 00:06:24;;;;;;;3.95;2.00;;;;;;;17.95;77.16;99672.34;5959217;30;20385;-75
2021/07/31 00:09:31;;;;;;;2.03;1.98;;;;;;;17.90;77.93;99677.88;5960203;30;20197;-75
2021/07/31 00:12:35;;;;;;;2.05;1.95;;;;;;;17.89;77.63;99677.09;5959535;30;20193;-75
2021/07/31 00:15:39;;;;;;;2.15;2.15;;;;;;;17.84;77.88;99673.56;5960261;30;20251;-75
2021/07/31 00:18:44;;;;;;;2.03;2.03;;;;;;;17.81;78.15;99679.66;5959835;29;20193;-75
2021/07/31 00:21:48;;;;;;;2.60;2.40;;;;;;;17.80;78.42;99686.28;5959718;30;20221;-75
2021/07/31 00:24:53;;;;;;;2.20;2.10;;;;;;;17.80;78.60;99678.00;5960021;30;20235;-74
2021/07/31 00:27:57;;;;;;;1.80;1.80;;;;;;;17.78;78.67;99686.59;5958266;29;20213;-75
2021/07/31 00:31:02;;;;;;;2.17;2.05;;;;;;;17.76;78.97;99694.34;5959419;30;20198;-75
2021/07/31 00:34:07;;;;;;;2.10;2.00;;;;;;;17.81;78.47;99690.69;5958673;29;20472;-74
2021/07/31 00:37:13;;;;;;;2.22;2.08;;;;;;;17.78;79.09;99685.75;5959506;30;20268;-75
2021/07/31 00:40:21;;;;;;;2.42;2.30;;;;;;;17.74;78.95;99695.75;5958435;30;20222;-75
2021/07/31 00:43:25;;;;;;;1.95;1.95;;;;;;;17.77;79.05;99695.97;5959383;30;20201;-75
2021/07/31 00:46:29;;;;;;;2.05;2.05;;;;;;;17.77;79.54;99692.41;5958360;30;20193;-74
2021/07/31 00:49:35;;;;;;;2.03;1.92;;;;;;;17.76;79.65;99693.50;5958455;29;20217;-75
2021/07/31 00:52:43;;;;;;;2.30;2.20;;;;;;;17.74;79.72;99695.75;5959508;30;20243;-75
2021/07/31 00:55:50;;;;;;;2.47;2.10;;;;;;;17.71;80.75;99705.41;5959351;30;20193;-76
2021/07/31 00:58:54;;;;;;;2.30;2.30;;;;;;;17.71;81.19;99701.84;5959496;30;20194;-75
2021/07/31 01:02:00;;;;;;;2.75;2.58;;;;;;;17.76;80.90;99710.06;5957687;30;20315;-75
2021/07/31 01:05:06;;;;;;;2.58;2.40;;;;;;;17.68;81.44;99696.88;5956815;30;20473;-75
2021/07/31 01:08:13;;;;;;;2.33;2.33;;;;;;;17.79;81.04;99703.97;5957958;30;20215;-75
2021/07/31 01:11:21;;;;;;;3.50;2.35;;;;;;;17.82;81.11;99697.88;5957121;30;20410;-74
2021/07/31 01:14:27;;;;;;;2.63;2.53;;;;;;;17.79;81.57;99703.97;5957717;29;20249;-75
2021/07/31 01:17:32;;;;;;;2.42;2.22;;;;;;;17.81;81.64;99710.84;5957273;30;20255;-74
2021/07/31 01:20:37;;;;;;;2.72;2.38;;;;;;;17.80;82.98;99702.84;5957588;30;20263;-75
2021/07/31 01:23:44;;;;;;;2.53;2.53;;;;;;;17.79;83.18;99698.44;5957503;30;20193;-75
2021/07/31 01:26:50;;;;;;;2.70;2.60;;;;;;;17.79;84.28;99709.47;5957834;30;20193;-75
2021/07/31 01:29:55;;;;;;;2.63;2.63;;;;;;;17.78;85.46;99713.34;5956167;29;20240;-74
2021/07/31 01:32:59;;;;;;;3.38;3.22;;;;;;;17.84;85.03;99717.69;5957104;29;20209;-75
2021/07/31 01:36:06;;;;;;;3.08;2.90;;;;;;;17.83;85.40;99707.78;5958289;30;20200;-74
2021/07/31 01:39:19;;;;;;;3.00;2.90;;;;;;;17.92;85.06;99709.59;5956790;30;20357;-75
2021/07/31 01:42:23;;;;;;;4.50;3.05;;;;;;;17.96;85.68;99707.09;5957220;30;20519;-75
2021/07/31 01:45:30;;;;;;;3.75;3.45;;;;;;;17.98;85.93;99707.59;5958196;30;20193;-75
2021/07/31 01:48:37;;;;;;;3.20;3.10;;;;;;;18.01;86.15;99712.53;5957808;30;20201;-75
2021/07/31 01:51:42;;;;;;;3.03;3.03;;;;;;;18.06;86.23;99720.75;5957150;30;20369;-74
2021/07/31 01:54:49;;;;;;;3.20;3.10;;;;;;;18.01;87.30;99718.06;5957417;30;20209;-74
2021/07/31 01:57:55;;;;;;;3.75;3.53;;;;;;;18.00;88.39;99714.47;5957854;30;20232;-75
2021/07/31 02:01:13;;;;;;;4.18;3.53;;;;;;;18.04;87.97;99725.75;5955583;30;20261;-75
2021/07/31 02:04:20;;;;;;;3.75;3.55;;;;;;;18.08;88.38;99724.03;5956355;30;20241;-75
2021/07/31 02:07:47;;;;;;;6.57;3.55;;;;;;;18.15;87.60;99730.06;5952093;29;20217;-75
2021/07/31 02:10:54;;;;;;;3.45;3.22;;;;;;;18.13;88.91;99715.72;5957679;30;20220;-74
2021/07/31 02:13:58;;;;;;;3.75;3.35;;;;;;;18.15;87.99;99717.06;5957741;30;20225;-75
2021/07/31 02:17:08;;;;;;;3.53;3.22;;;;;;;18.20;87.68;99726.41;5957357;30;20231;-75
2021/07/31 02:20:14;;;;;;;3.70;3.50;;;;;;;18.18;88.27;99723.13;5956496;29;20216;-74
2021/07/31 02:23:47;;;;;;;3.83;3.50;;;;;;;18.15;89.00;99724.53;5924438;29;20213;-74
2021/07/31 02:27:13;;;;;;;3.70;3.33;;;;;;;18.15;88.63;99716.25;5957492;29;20201;-75
2021/07/31 02:30:27;;;;;;;4.82;3.80;;;;;;;18.09;89.72;99714.66;5956396;29;20213;-74
2021/07/31 02:33:35;;;;;;;3.58;3.40;;;;;;;18.05;90.29;99732.94;5957866;30;20225;-76
2021/07/31 02:36:42;;;;;;;3.47;3.38;;;;;;;18.14;89.36;99728.41;5956643;29;20241;-76
2021/07/31 02:39:55;;;;;;;5.38;3.20;;;;;;;18.15;89.94;99724.53;5956587;29;20210;-76
2021/07/31 02:43:01;;;;;;;3.72;3.63;;;;;;;18.20;89.34;99730.00;5961331;30;20217;-76
2021/07/31 02:46:07;;;;;;;3.65;3.45;;;;;;;18.17;90.19;99730.59;5960777;30;20210;-76
2021/07/31 02:49:15;;;;;;;6.43;3.60;;;;;;;18.14;90.32;99731.16;5962185;30;20247;-76
2021/07/31 02:52:22;;;;;;;4.10;3.95;;;;;;;18.10;91.93;99732.88;5962102;30;20202;-76
2021/07/31 02:55:34;;;;;;;3.70;3.47;;;;;;;18.24;89.99;99735.75;5960999;30;20194;-76
2021/07/31 02:58:40;;;;;;;3.42;3.33;;;;;;;18.19;90.78;99731.13;5961221;29;20209;-74
2021/07/31 03:01:44;;;;;;;3.72;3.53;;;;;;;18.27;90.12;99751.72;5960578;30;20410;-74
2021/07/31 03:04:51;;;;;;;3.58;3.38;;;;;;;18.26;90.31;99748.13;5960961;30;20280;-74
2021/07/31 03:08:01;;;;;;;4.18;3.97;;;;;;;18.19;91.31;99738.56;5961723;30;20262;-74
2021/07/31 03:11:08;;;;;;;3.47;3.15;;;;;;;18.29;90.69;99747.56;5960678;30;20260;-75
2021/07/31 03:14:15;;;;;;;3.50;3.40;;;;;;;18.33;90.25;99740.34;5959655;29;20254;-75
2021/07/31 03:17:22;;;;;;;3.15;3.13;;;;;;;18.39;89.49;99760.41;5960348;30;20549;-75
2021/07/31 03:20:27;;;;;;;3.83;3.50;;;;;;;18.32;90.79;99758.03;5959568;29;20210;-75
2021/07/31 03:23:36;;;;;;;4.20;3.47;;;;;;;18.37;90.39;99766.25;5961435;30;20218;-75
2021/07/31 03:26:40;;;;;;;3.15;2.95;;;;;;;18.37;90.76;99755.19;5961445;30;20193;-75
2021/07/31 03:29:51;;;;;;;3.45;3.35;;;;;;;18.46;89.89;99764.47;5961322;30;20267;-76
2021/07/31 03:32:56;;;;;;;3.15;3.00;;;;;;;18.51;89.63;99778.28;5959848;29;20214;-75
2021/07/31 03:36:03;;;;;;;3.40;3.20;;;;;;;18.57;89.58;99774.31;5960010;30;20201;-74
2021/07/31 03:39:12;;;;;;;3.22;3.13;;;;;;;18.63;88.91;99783.38;5959883;29;20209;-74
2021/07/31 03:42:16;;;;;;;3.30;3.10;;;;;;;18.62;89.17;99785.28;5960733;30;20225;-75
2021/07/31 03:45:26;;;;;;;3.53;3.33;;;;;;;18.69;88.40;99784.97;5960020;29;20281;-74
2021/07/31 03:48:32;;;;;;;4.00;3.70;;;;;;;18.75;88.31;99789.28;5959914;30;20216;-75
2021/07/31 03:51:37;;;;;;;3.78;3.38;;;;;;;18.74;88.15;99795.94;5960149;29;20205;-74
2021/07/31 03:54:41;;;;;;;3.30;3.20;;;;;;;18.73;87.55;99803.41;5959597;29;20213;-75
2021/07/31 03:57:46;;;;;;;2.97;2.88;;;;;;;18.69;87.32;99796.81;5959300;29;20387;-75
2021/07/31 04:00:54;;;;;;;3.08;2.90;;;;;;;18.74;87.02;99805.06;5960691;30;20261;-75
2021/07/31 04:03:58;;;;;;;3.13;2.97;;;;;;;18.65;88.21;99801.28;5959063;30;20568;-75
2021/07/31 04:07:04;;;;;;;5.45;3.25;;;;;;;18.67;88.31;99806.50;5960239;30;20193;-75
2021/07/31 04:10:26;;;;;;;3.35;3.22;;;;;;;18.68;87.51;99806.22;5960155;30;20222;-75
2021/07/31 04:13:50;;;;;;;3.38;3.13;;;;;;;18.73;87.14;99813.63;5959490;29;20563;-75
2021/07/31 04:17:03;;;;;;;3.10;3.00;;;;;;;18.76;87.12;99824.09;5958619;29;20225;-75
2021/07/31 04:20:10;;;;;;;3.05;2.95;;;;;;;18.73;86.96;99819.97;5958362;29;20285;-75
2021/07/31 04:23:15;;;;;;;3.25;3.15;;;;;;;18.72;86.81;99818.31;5958914;30;20251;-75
2021/07/31 04:26:27;;;;;;;3.15;3.05;;;;;;;18.64;87.00;99821.72;5959522;30;20225;-75
2021/07/31 04:29:33;;;;;;;3.78;2.88;;;;;;;18.65;86.48;99826.16;5959203;30;20201;-77
2021/07/31 04:32:38;;;;;;;3.45;3.35;;;;;;;18.71;86.04;99825.00;5958787;30;20261;-75
2021/07/31 04:35:45;;;;;;;3.13;2.97;;;;;;;18.68;86.50;99821.97;5959667;30;20219;-75
2021/07/31 04:38:49;;;;;;;4.90;4.53;;;;;;;18.66;86.05;99819.53;5959863;30;20247;-75
2021/07/31 04:41:53;;;;;;;5.95;5.43;;;;;;;18.65;85.64;99825.31;5958504;30;20554;-76
2021/07/31 04:44:57;;;;;;;10.48;7.75;;;;;;;18.62;85.78;99835.03;5959105;30;20200;-75
2021/07/31 04:48:03;;;;;;;11.00;7.95;;;;;;;18.74;85.22;99837.38;5959467;30;20225;-76
2021/07/31 04:51:09;;;;;;;9.82;8.82;;;;;;;18.80;85.23;99838.16;5959666;30;20201;-76
2021/07/31 04:54:14;;;;;;;7.22;6.53;;;;;;;18.73;84.88;99844.84;5959312;29;20206;-75
2021/07/31 04:57:19;;;;;;;5.38;5.07;;;;;;;18.56;84.29;99841.75;5959640;29;20198;-75
2021/07/31 05:00:23;;;;;;;4.53;3.92;;;;;;;18.56;83.65;99847.25;5959476;30;20232;-75
2021/07/31 05:03:29;;;;;;;4.97;4.50;;;;;;;18.73;83.12;99844.84;5958245;29;20237;-75
2021/07/31 05:06:33;;;;;;;5.35;4.95;;;;;;;18.79;82.68;99853.06;5958132;30;20473;-76
2021/07/31 05:09:38;;;;;;;5.05;4.85;;;;;;;18.77;82.49;99847.03;5959002;30;20200;-75
2021/07/31 05:12:42;;;;;;;4.38;4.20;;;;;;;18.83;82.74;99848.59;5959184;30;20229;-76
2021/07/31 05:15:48;;;;;;;3.80;3.60;;;;;;;18.90;82.62;99851.84;5957844;29;20220;-76
2021/07/31 05:18:54;;;;;;;3.80;3.70;;;;;;;18.95;82.58;99854.53;5957334;29;20285;-75
2021/07/31 05:21:58;;;;;;;4.28;3.95;;;;;;;19.01;81.75;99845.88;5957673;30;20385;-76
2021/07/31 05:25:03;;;;;;;4.28;3.97;;;;;;;19.05;81.35;99846.13;5957172;29;20503;-75
2021/07/31 05:28:08;;;;;;;5.00;4.70;;;;;;;19.10;80.60;99840.53;5958507;30;20201;-76
2021/07/31 05:31:19;;;;;;;6.15;5.65;;;;;;;19.14;80.12;99858.16;5958475;30;20201;-76
2021/07/31 05:34:25;;;;;;;5.78;5.28;;;;;;;19.14;79.40;99860.91;5958740;30;20197;-76
2021/07/31 05:37:31;;;;;;;6.53;5.93;;;;;;;19.19;78.95;99867.22;5957705;30;20251;-76
2021/07/31 05:40:36;;;;;;;4.88;4.50;;;;;;;19.15;79.37;99859.81;5958597;30;20200;-75
2021/07/31 05:43:40;;;;;;;4.20;3.90;;;;;;;19.23;79.38;99867.44;5958319;30;20218;-74
2021/07/31 05:46:44;;;;;;;2.60;2.50;;;;;;;19.25;78.87;99859.66;5958443;30;20193;-75
2021/07/31 05:49:50;;;;;;;3.10;3.00;;;;;;;19.29;77.49;99860.69;5957165;29;20548;-75
2021/07/31 05:52:54;;;;;;;2.90;2.70;;;;;;;19.40;77.32;99869.72;5957412;30;20201;-75
2021/07/31 05:56:00;;;;;;;3.17;3.10;;;;;;;19.43;76.28;99872.72;5957518;30;20270;-75
2021/07/31 05:59:05;;;;;;;3.63;3.40;;;;;;;19.52;76.58;99870.91;5958165;30;20228;-75
2021/07/31 06:02:09;;;;;;;7.50;4.10;;;;;;;19.64;76.29;99873.25;5957756;30;20265;-75
2021/07/31 06:05:15;;;;;;;3.83;3.60;;;;;;;19.76;75.93;99863.38;5958055;30;20252;-75
2021/07/31 06:08:19;;;;;;;4.43;4.13;;;;;;;19.90;75.38;99880.84;5957678;30;20197;-75
2021/07/31 06:11:24;;;;;;;4.10;3.90;;;;;;;19.91;74.40;99874.19;5956820;30;20437;-76
2021/07/31 06:14:29;;;;;;;4.00;3.67;;;;;;;20.12;74.56;99868.31;5957873;29;20325;-75
2021/07/31 06:17:33;;;;;;;3.50;3.17;;;;;;;20.27;75.36;99870.84;5956675;30;20511;-75
2021/07/31 06:20:40;;;;;;;2.80;2.70;;;;;;;20.26;74.06;99874.75;5957525;30;20234;-75
2021/07/31 06:23:44;;;;;;;3.63;3.03;;;;;;;20.22;74.20;99879.22;5957774;30;20249;-74
2021/07/31 06:26:48;;;;;;;3.03;2.75;;;;;;;20.27;73.79;99870.84;5956679;30;20193;-75
2021/07/31 06:29:52;;;;;;;3.00;2.90;;;;;;;20.37;74.45;99882.56;5957442;30;20201;-75
2021/07/31 06:32:56;;;;;;;2.80;2.70;;;;;;;20.48;73.01;99888.75;5957493;30;20194;-75
2021/07/31 06:36:02;;;;;;;3.00;2.90;;;;;;;20.43;72.07;99891.63;5956545;29;20200;-75
2021/07/31 06:39:07;;;;;;;3.08;2.85;;;;;;;20.54;71.96;99890.31;5957450;30;20400;-76
2021/07/31 06:42:11;;;;;;;3.10;3.00;;;;;;;20.70;72.68;99891.66;5957320;30;20193;-75
2021/07/31 06:45:15;;;;;;;3.22;3.03;;;;;;;20.78;71.54;99888.16;5956364;29;20588;-75
2021/07/31 06:48:22;;;;;;;3.20;3.10;;;;;;;20.82;70.57;99885.63;5957154;30;20493;-75
2021/07/31 06:51:30;;;;;;;3.40;3.20;;;;;;;20.92;71.50;99883.47;5956235;30;20542;-75
2021/07/31 06:54:34;;;;;;;3.15;3.05;;;;;;;20.88;71.69;99881.59;5956524;30;20270;-75
2021/07/31 06:57:38;;;;;;;3.33;3.22;;;;;;;21.03;70.73;99873.78;5957346;29;20257;-76
2021/07/31 07:00:42;;;;;;;3.05;2.95;;;;;;;21.17;70.66;99891.28;5956117;30;20431;-75
2021/07/31 07:03:50;;;;;;;3.45;3.22;;;;;;;21.15;70.22;99885.25;5956741;30;20252;-75
2021/07/31 07:06:56;;;;;;;3.30;3.22;;;;;;;21.37;70.44;99891.97;5956087;30;20194;-75
2021/07/31 07:10:00;;;;;;;3.85;3.50;;;;;;;21.39;70.03;99898.06;5957401;29;20261;-75
2021/07/31 07:13:06;;;;;;;3.55;3.35;;;;;;;21.40;68.63;99899.69;5957333;30;20193;-75
2021/07/31 07:16:12;;;;;;;3.33;3.10;;;;;;;21.52;68.12;99899.97;5957091;30;20206;-75
2021/07/31 07:19:16;;;;;;;3.70;3.50;;;;;;;21.56;67.98;99904.59;5956895;30;20193;-75
2021/07/31 07:22:22;;;;;;;3.70;3.40;;;;;;;21.64;68.12;99889.16;5956877;30;20214;-75
2021/07/31 07:25:28;;;;;;;3.78;3.50;;;;;;;21.58;68.35;99890.38;5956856;30;20263;-75
2021/07/31 07:28:32;;;;;;;3.58;3.45;;;;;;;21.71;68.09;99886.75;5958747;29;20500;-75
2021/07/31 07:31:39;;;;;;;3.90;3.53;;;;;;;21.76;67.29;99884.69;5959969;30;20485;-75
2021/07/31 07:34:43;;;;;;;4.20;3.75;;;;;;;21.37;67.63;99887.25;5959846;29;20276;-75
2021/07/31 07:37:49;;;;;;;7.75;3.80;;;;;;;21.52;67.66;99880.56;5959841;30;20282;-75
2021/07/31 07:40:53;;;;;;;4.07;3.78;;;;;;;21.61;67.66;99889.78;5961929;30;20225;-75
2021/07/31 07:43:58;;;;;;;6.05;3.42;;;;;;;21.67;67.51;99882.97;5959651;30;20222;-74
2021/07/31 07:47:02;;;;;;;4.45;3.97;;;;;;;21.89;67.82;99883.03;5959838;30;20219;-75
2021/07/31 07:50:08;;;;;;;4.53;3.45;;;;;;;21.81;66.45;99887.34;5960299;30;20201;-75
2021/07/31 07:53:17;;;;;;;4.47;3.90;;;;;;;21.98;67.50;99889.47;5959317;30;20394;-75
2021/07/31 07:56:21;;;;;;;5.22;3.70;;;;;;;22.19;66.21;99893.38;5959359;30;20201;-75
2021/07/31 07:59:26;;;;;;;3.97;3.78;;;;;;;22.09;67.22;99888.09;5959571;30;20197;-73
2021/07/31 08:02:30;;;;;;;4.55;4.03;;;;;;;22.11;66.52;99905.25;5960224;29;20492;-75
2021/07/31 08:05:38;;;;;;;6.82;3.88;;;;;;;21.86;66.50;99908.63;5958037;29;20249;-74
2021/07/31 08:08:43;;;;;;;5.07;4.05;;;;;;;22.01;66.94;99905.50;5960064;30;20201;-74
2021/07/31 08:11:48;;;;;;;3.90;3.63;;;;;;;22.12;66.42;99906.91;5960327;30;20194;-74
2021/07/31 08:14:52;;;;;;;4.53;4.13;;;;;;;22.15;65.99;99906.28;5960194;30;20223;-76
2021/07/31 08:17:57;;;;;;;4.03;3.67;;;;;;;22.21;65.91;99909.75;5960117;30;20233;-75
2021/07/31 08:21:01;;;;;;;4.30;3.70;;;;;;;22.22;66.24;99914.97;5958852;30;20251;-75
2021/07/31 08:24:07;;;;;;;4.40;4.07;;;;;;;22.14;66.16;99914.91;5959182;30;20225;-75
2021/07/31 08:27:12;;;;;;;5.07;4.45;;;;;;;22.28;66.18;99910.94;5959708;30;20224;-76
2021/07/31 08:30:18;;;;;;;4.68;4.38;;;;;;;22.42;65.68;99899.72;5958728;30;20492;-76
2021/07/31 08:33:22;;;;;;;4.70;4.38;;;;;;;22.47;65.52;99909.91;5958595;30;20198;-75
2021/07/31 08:36:26;;;;;;;7.10;4.60;;;;;;;22.41;66.04;99909.22;5958506;29;20220;-75
2021/07/31 08:39:32;;;;;;;5.68;4.50;;;;;;;22.35;66.03;99911.31;5957059;29;20260;-75
2021/07/31 08:42:37;;;;;;;4.70;4.30;;;;;;;22.26;65.23;99924.31;5959559;30;20201;-75
2021/07/31 08:45:41;;;;;;;6.90;4.63;;;;;;;22.24;65.43;99920.22;5958406;30;20249;-75
2021/07/31 08:48:48;;;;;;;4.32;4.00;;;;;;;22.34;65.52;99915.22;5958408;30;20197;-76
2021/07/31 08:51:52;;;;;;;4.47;4.22;;;;;;;22.36;65.25;99918.53;5959702;30;20257;-76
2021/07/31 08:55:00;;;;;;;5.05;4.25;;;;;;;22.44;64.59;99917.72;5959059;30;20264;-75
2021/07/31 08:58:09;;;;;;;3.90;3.70;;;;;;;22.54;64.26;99918.63;5958394;29;20209;-75
2021/07/31 09:01:14;;;;;;;7.55;4.28;;;;;;;22.38;64.11;99927.34;5959857;30;20193;-76
2021/07/31 09:04:20;;;;;;;4.35;4.05;;;;;;;22.38;64.41;99924.59;5959191;30;20326;-77
2021/07/31 09:07:25;;;;;;;6.25;4.20;;;;;;;22.44;63.86;99931.63;5958350;30;20236;-76
2021/07/31 09:10:31;;;;;;;5.95;4.28;;;;;;;22.49;63.67;99938.22;5959328;30;20194;-77
2021/07/31 09:13:36;;;;;;;7.43;4.60;;;;;;;22.39;64.65;99937.31;5959269;30;20194;-75
2021/07/31 09:16:42;;;;;;;4.95;4.20;;;;;;;22.50;64.00;99945.41;5959064;30;20197;-76
2021/07/31 09:19:46;;;;;;;4.95;4.72;;;;;;;22.44;64.10;99941.94;5958982;30;20194;-75
2021/07/31 09:22:52;;;;;;;7.75;4.55;;;;;;;22.51;63.81;99944.28;5958951;30;20266;-76
2021/07/31 09:26:01;;;;;;;7.22;4.43;;;;;;;22.53;63.87;99945.59;5957580;30;20221;-76
2021/07/31 09:29:09;;;;;;;4.55;4.25;;;;;;;22.57;63.86;99945.78;5958685;30;20197;-76
2021/07/31 09:32:13;;;;;;;7.15;4.80;;;;;;;22.69;63.24;99948.84;5956802;29;20258;-76
2021/07/31 09:35:22;;;;;;;5.00;4.57;;;;;;;22.72;62.67;99942.63;5957511;30;20198;-75
2021/07/31 09:38:36;;;;;;;4.35;3.92;;;;;;;22.62;63.15;99948.44;5957707;30;20194;-76
2021/07/31 09:41:45;;;;;;;5.75;4.90;;;;;;;22.75;62.49;99948.38;5956639;29;20322;-75
2021/07/31 09:44:49;;;;;;;5.82;4.40;;;;;;;22.78;62.62;99952.47;5957026;29;20394;-76
2021/07/31 09:48:01;;;;;;;11.05;3.97;;;;;;;22.78;63.09;99946.91;5957099;30;20316;-76
2021/07/31 09:51:08;;;;;;;4.90;4.57;;;;;;;22.78;62.21;99952.47;5958103;29;20244;-77
2021/07/31 09:54:14;;;;;;;4.70;4.30;;;;;;;22.77;62.83;99945.28;5958317;30;20193;-75
2021/07/31 09:57:25;;;;;;;5.15;4.85;;;;;;;22.70;62.61;99947.72;5958222;29;20197;-76
2021/07/31 10:00:29;;;;;;;5.63;4.85;;;;;;;22.74;61.33;99940.34;5958195;30;20236;-75
2021/07/31 10:03:36;;;;;;;4.72;4.53;;;;;;;22.91;60.92;99940.44;5957716;30;20213;-76
2021/07/31 10:06:42;;;;;;;8.20;4.00;;;;;;;22.93;60.99;99941.75;5958026;30;20221;-76
2021/07/31 10:09:50;;;;;;;6.15;4.65;;;;;;;23.04;60.59;99939.50;5958807;30;20243;-76
2021/07/31 10:12:56;;;;;;;4.57;4.32;;;;;;;23.01;60.15;99943.75;5957592;30;20198;-75
2021/07/31 10:16:03;;;;;;;9.63;4.20;;;;;;;22.98;60.13;99951.94;5957686;30;20322;-74
2021/07/31 10:19:11;;;;;;;4.47;4.05;;;;;;;22.86;60.66;99955.31;5956507;30;20388;-74
2021/07/31 10:22:16;;;;;;;7.72;4.47;;;;;;;22.91;60.58;99954.34;5956603;30;20193;-74
2021/07/31 10:25:20;;;;;;;9.15;4.47;;;;;;;22.99;60.65;99964.69;5956421;30;20248;-74
2021/07/31 10:28:28;;;;;;;4.53;4.22;;;;;;;22.98;61.36;99957.50;5957658;29;20225;-74
2021/07/31 10:31:34;;;;;;;5.00;4.60;;;;;;;22.83;62.11;99964.28;5956658;30;20260;-74
2021/07/31 10:34:46;;;;;;;5.40;4.20;;;;;;;22.80;63.88;99966.91;5957498;29;20198;-74
2021/07/31 10:37:51;;;;;;;4.97;4.57;;;;;;;22.69;67.96;99976.63;5956669;30;20205;-75
2021/07/31 10:40:56;;;;;;;4.53;4.22;;;;;;;22.34;69.71;99968.00;5956487;30;20593;-75
2021/07/31 10:44:11;;;;;;;4.47;4.28;;;;;;;22.23;69.71;99972.19;5957702;30;20194;-76
2021/07/31 10:47:40;;;;;;;4.95;4.15;;;;;;;22.04;70.89;99974.31;5956694;30;20218;-77
2021/07/31 10:50:47;;;;;;;5.00;4.22;;;;;;;22.09;70.31;99974.19;5957704;30;20198;-75
2021/07/31 10:53:53;;;;;;;5.10;4.70;;;;;;;22.13;71.26;99975.22;5957488;30;20257;-75
2021/07/31 10:56:59;;;;;;;4.65;4.35;;;;;;;22.02;72.57;99979.34;5957636;30;20264;-75
2021/07/31 11:00:24;;;;;;;5.15;4.70;;;;;;;22.09;72.75;99968.63;5957376;30;20197;-76
2021/07/31 11:03:40;;;;;;;5.10;4.60;;;;;;;22.08;72.78;99972.56;5959693;29;20209;-75
2021/07/31 11:07:09;;;;;;;5.40;4.55;;;;;;;21.99;74.99;99979.97;5960438;30;20516;-75
2021/07/31 11:10:35;;;;;;;7.57;5.18;;;;;;;22.05;75.14;99978.75;5961485;30;20270;-76
2021/07/31 11:13:54;;;;;;;7.07;4.75;;;;;;;22.20;74.00;99972.81;5961687;30;20226;-75
2021/07/31 11:17:18;;;;;;;5.47;5.10;;;;;;;22.21;75.04;99966.09;5960879;29;20262;-76
2021/07/31 11:20:28;;;;;;;5.53;5.10;;;;;;;22.29;74.26;99957.03;5960544;30;20209;-75
2021/07/31 11:23:33;;;;;;;7.00;4.95;;;;;;;22.28;74.31;99968.47;5960383;30;20243;-77
2021/07/31 11:26:45;;;;;;;5.38;4.95;;;;;;;22.37;73.41;99970.16;5960239;29;20292;-75
2021/07/31 11:29:53;;;;;;;7.53;4.88;;;;;;;22.36;72.17;99959.38;5960559;29;20198;-76
2021/07/31 11:33:16;;;;;;;4.80;4.40;;;;;;;22.43;72.39;99952.25;5960075;30;20232;-76
2021/07/31 11:36:20;;;;;;;5.13;4.68;;;;;;;22.66;71.61;99960.59;5959865;30;20221;-76
2021/07/31 11:39:25;;;;;;;5.22;4.70;;;;;;;22.70;70.60;99956.03;5959907;30;20435;-76
2021/07/31 11:42:31;;;;;;;5.07;4.70;;;;;;;22.70;70.85;99939.38;5960861;30;20261;-75
2021/07/31 11:45:42;;;;;;;4.72;4.53;;;;;;;22.79;67.51;99949.38;5961113;30;20235;-76
2021/07/31 11:48:51;;;;;;;35.60;15.00;;;;;;;22.91;67.15;99940.44;5960499;30;20198;-75
2021/07/31 11:51:57;;;;;;;4.85;4.53;;;;;;;23.03;65.16;99943.47;5959695;30;20194;-76
2021/07/31 11:55:01;;;;;;;4.88;4.30;;;;;;;23.17;64.73;99941.38;5959625;29;20485;-76
2021/07/31 11:58:05;;;;;;;4.65;4.25;;;;;;;23.08;63.52;99946.88;5960744;30;20198;-76
2021/07/31 12:01:11;;;;;;;4.72;4.35;;;;;;;23.06;65.45;99948.34;5959711;29;20270;-75
2021/07/31 12:04:17;;;;;;;5.22;4.18;;;;;;;23.07;65.71;99952.78;5960195;30;20245;-75
2021/07/31 12:07:22;;;;;;;6.10;4.60;;;;;;;23.08;65.11;99962.78;5960880;30;20221;-77
2021/07/31 12:10:26;;;;;;;4.55;4.25;;;;;;;22.95;64.56;99958.13;5960597;30;20219;-76
2021/07/31 12:13:31;;;;;;;4.68;4.38;;;;;;;22.87;62.77;99956.13;5960253;29;20219;-77
2021/07/31 12:16:35;;;;;;;4.20;4.00;;;;;;;22.77;62.65;99961.97;5959253;30;20512;-76
2021/07/31 12:19:44;;;;;;;4.45;4.25;;;;;;;22.73;63.05;99955.38;5959399;29;20209;-76
2021/07/31 12:22:52;;;;;;;4.40;4.20;;;;;;;22.77;64.06;99951.66;5960056;30;20194;-77
2021/07/31 12:25:58;;;;;;;5.30;4.50;;;;;;;22.79;62.40;99959.69;5958792;30;20482;-77
2021/07/31 12:29:03;;;;;;;4.80;4.40;;;;;;;22.84;61.72;99962.31;5959713;30;20234;-77
2021/07/31 12:32:24;;;;;;;4.80;4.47;;;;;;;22.84;62.43;99962.31;5959178;30;20200;-77
2021/07/31 12:35:43;;;;;;;5.20;4.65;;;;;;;22.85;62.79;99947.28;5960028;30;20202;-76
2021/07/31 12:38:48;;;;;;;7.65;4.28;;;;;;;22.91;61.07;99957.13;5959214;30;20233;-77
2021/07/31 12:41:55;;;;;;;4.40;4.10;;;;;;;22.87;60.49;99967.25;5958489;30;20403;-76
2021/07/31 12:45:10;;;;;;;4.88;4.07;;;;;;;22.99;59.17;99964.69;5959933;30;20194;-75
2021/07/31 12:48:16;;;;;;;4.35;4.15;;;;;;;23.11;59.43;99962.16;5958472;30;20528;-77
2021/07/31 12:51:22;;;;;;;4.53;4.13;;;;;;;23.11;59.70;99967.72;5959493;30;20394;-76
2021/07/31 12:54:27;;;;;;;5.45;4.20;;;;;;;23.07;59.45;99958.34;5959464;30;20233;-76
2021/07/31 12:57:33;;;;;;;4.88;4.50;;;;;;;23.10;59.71;99965.22;5959445;29;20202;-76
2021/07/31 13:00:39;;;;;;;4.57;4.15;;;;;;;23.09;60.22;99956.06;5957952;30;20392;-76
2021/07/31 13:03:45;;;;;;;5.57;4.05;;;;;;;23.15;59.58;99952.00;5958167;30;20245;-76
2021/07/31 13:06:52;;;;;;;5.13;4.38;;;;;;;22.87;59.72;99942.22;5958691;30;20267;-76
2021/07/31 13:09:56;;;;;;;4.60;4.40;;;;;;;23.02;60.16;99947.38;5958005;30;20460;-75
2021/07/31 13:13:01;;;;;;;3.95;3.80;;;;;;;23.24;59.79;99935.34;5958149;30;20194;-75
2021/07/31 13:16:07;;;;;;;3.88;3.60;;;;;;;23.23;58.91;99925.34;5957819;30;20225;-76
2021/07/31 13:19:12;;;;;;;3.97;3.72;;;;;;;23.40;58.87;99929.03;5958863;30;20197;-76
2021/07/31 13:22:19;;;;;;;3.70;3.60;;;;;;;23.35;57.42;99920.81;5957625;30;20410;-75
2021/07/31 13:25:23;;;;;;;3.97;3.72;;;;;;;23.39;56.79;99923.81;5958092;29;20220;-75
2021/07/31 13:28:28;;;;;;;4.65;4.20;;;;;;;23.34;57.78;99916.38;5958584;29;20297;-76
2021/07/31 13:31:35;;;;;;;3.78;3.63;;;;;;;23.43;57.68;99914.47;5957580;30;20508;-75
2021/07/31 13:34:40;;;;;;;3.97;3.67;;;;;;;23.46;57.75;99919.41;5957349;30;20452;-75
2021/07/31 13:37:48;;;;;;;4.55;4.15;;;;;;;23.29;56.92;99924.88;5956932;29;20501;-75
2021/07/31 13:40:54;;;;;;;3.67;3.50;;;;;;;23.43;57.08;99920.03;5957205;30;20499;-75
2021/07/31 13:44:01;;;;;;;4.30;4.00;;;;;;;23.46;56.64;99913.00;5958241;30;20193;-75
2021/07/31 13:47:05;;;;;;;5.00;4.00;;;;;;;23.44;57.17;99916.13;5957968;30;20274;-75
2021/07/31 13:50:13;;;;;;;4.40;4.20;;;;;;;23.48;56.98;99911.53;5957600;29;20194;-76
2021/07/31 13:53:19;;;;;;;3.83;3.50;;;;;;;23.53;56.07;99907.78;5958618;30;20274;-75
2021/07/31 13:56:23;;;;;;;4.55;3.25;;;;;;;23.40;55.64;99912.34;5956834;30;20457;-76
2021/07/31 13:59:28;;;;;;;3.72;3.53;;;;;;;23.48;56.58;99911.53;5958296;30;20198;-76
2021/07/31 14:02:32;;;;;;;3.28;3.17;;;;;;;23.52;56.63;99912.50;5957016;29;20353;-75
2021/07/31 14:05:38;;;;;;;4.53;3.10;;;;;;;23.35;54.73;99934.72;5957317;30;20252;-75
2021/07/31 14:08:44;;;;;;;3.53;3.03;;;;;;;23.47;57.03;99923.81;5957739;30;20263;-76
2021/07/31 14:11:48;;;;;;;3.17;2.97;;;;;;;23.47;55.46;99932.16;5957695;30;20250;-77
2021/07/31 14:14:52;;;;;;;3.10;2.97;;;;;;;23.43;55.02;99931.19;5956549;30;20499;-76
2021/07/31 14:17:57;;;;;;;2.97;2.85;;;;;;;23.35;54.80;99934.72;5957772;30;20300;-75
2021/07/31 14:21:06;;;;;;;3.10;2.90;;;;;;;23.42;54.35;99931.50;5957505;30;20247;-75
2021/07/31 14:24:11;;;;;;;4.38;3.13;;;;;;;23.47;54.01;99926.59;5956485;30;20217;-76
2021/07/31 14:27:16;;;;;;;2.58;2.47;;;;;;;23.50;53.91;99914.81;5957318;30;20220;-75
2021/07/31 14:30:20;;;;;;;2.50;2.50;;;;;;;23.45;54.26;99920.53;5956817;30;20228;-75
2021/07/31 14:33:24;;;;;;;3.70;2.60;;;;;;;23.50;53.74;99931.50;5956294;30;20544;-74
2021/07/31 14:36:29;;;;;;;2.80;2.60;;;;;;;23.55;54.06;99927.75;5958025;29;20531;-75
2021/07/31 14:39:36;;;;;;;3.42;3.33;;;;;;;23.57;52.00;99931.84;5961391;30;20197;-75